Time;durP1;ratioP1;P1;durP2;ratioP2;P2;SDS_P1;SDS_P2;PMS_P1;PMS_P2;Temp;Humidity;BMP_temperature;BMP_pressure;BME280_temperature;BME280_humidity;BME280_pressure;Samples;Min_cycle;Max_cycle;Signal;HPM_P1;HPM_P2
2022/09/17 00:00:39;;;;;;;;;;;;;;;11.20;76.77;99490.03;1087624;54;19997;-79
2022/09/17 00:01:40;;;;;;;;;;;;;;;11.28;76.24;99491.91;1087615;54;19943;-80
2022/09/17 00:02:45;;;;;;;;;;;;;;;11.22;76.26;99488.06;1087566;54;19947;-79
2022/09/17 00:03:51;;;;;;;;;;;;;;;11.18;76.44;99492.03;1087378;54;19958;-79
2022/09/17 00:04:55;;;;;;;;;;;;;;;11.08;76.74;99490.34;1087703;54;19943;-78
2022/09/17 00:05:59;;;;;;;;;;;;;;;11.17;76.69;99487.69;1087585;54;20881;-79
2022/09/17 00:07:03;;;;;;;;;;;;;;;11.20;76.39;99490.03;1087771;54;19962;-78
2022/09/17 00:08:05;;;;;;;;;;;;;;;11.10;76.52;99500.03;1087639;54;20409;-79
2022/09/17 00:09:10;;;;;;;;;;;;;;;11.08;76.40;99498.38;1087514;54;19951;-79
2022/09/17 00:10:11;;;;;;;;;;;;;;;11.06;76.86;99496.84;1087645;54;19943;-79
2022/09/17 00:11:16;;;;;;;;;;;;;;;11.17;76.71;99495.72;1087646;54;19938;-78
2022/09/17 00:12:17;;;;;;;;;;;;;;;11.22;76.17;99493.41;1087795;54;19958;-79
2022/09/17 00:13:21;;;;;;;;;;;;;;;11.20;76.20;99490.03;1087081;54;19938;-80
2022/09/17 00:14:25;;;;;;;;;;;;;;;11.13;75.85;99497.88;1089114;39;20569;-79
2022/09/17 00:15:28;;;;;;;;;;;;;;;11.15;76.46;99495.88;1087657;54;19951;-79
2022/09/17 00:16:31;;;;;;;;;;;;;;;10.97;76.41;99487.94;1091227;39;21031;-79
2022/09/17 00:17:34;;;;;;;;;;;;;;;11.07;76.34;99496.69;1087616;54;19957;-79
2022/09/17 00:18:39;;;;;;;;;;;;;;;10.98;76.55;99491.47;1087714;54;19955;-79
2022/09/17 00:19:43;;;;;;;;;;;;;;;10.85;77.10;99494.59;1087631;54;19950;-78
2022/09/17 00:20:45;;;;;;;;;;;;;;;10.97;76.68;99487.13;1087825;54;19953;-78
2022/09/17 00:21:49;;;;;;;;;;;;;;;11.03;76.36;99489.16;1087940;54;19949;-79
2022/09/17 00:22:51;;;;;;;;;;;;;;;11.05;76.20;99490.66;1087816;54;19927;-79
2022/09/17 00:23:56;;;;;;;;;;;;;;;11.06;75.87;99494.19;1087523;54;19943;-79
2022/09/17 00:24:57;;;;;;;;;;;;;;;11.02;75.85;99488.31;1090083;39;20634;-79
2022/09/17 00:26:01;;;;;;;;;;;;;;;11.11;75.99;99497.19;1089233;39;20528;-79
2022/09/17 00:27:02;;;;;;;;;;;;;;;11.16;75.61;99486.88;1087859;54;19949;-79
2022/09/17 00:28:06;;;;;;;;;;;;;;;11.20;75.59;99493.53;1087793;54;19942;-80
2022/09/17 00:29:08;;;;;;;;;;;;;;;11.19;75.33;99493.72;1087777;54;19942;-79
2022/09/17 00:30:15;;;;;;;;;;;;;;;11.06;75.14;99497.69;1087624;54;19934;-78
2022/09/17 00:31:16;;;;;;;;;;;;;;;10.96;75.69;99494.28;1087571;54;19977;-79
2022/09/17 00:32:20;;;;;;;;;;;;;;;11.04;75.72;99501.53;1087661;54;19943;-79
2022/09/17 00:33:21;;;;;;;;;;;;;;;10.97;75.65;99498.66;1087399;54;19943;-78
2022/09/17 00:34:24;;;;;;;;;;;;;;;10.85;76.10;99491.94;1087618;54;19983;-79
2022/09/17 00:35:26;;;;;;;;;;;;;;;11.00;75.87;99498.34;1087594;54;20461;-79
2022/09/17 00:36:29;;;;;;;;;;;;;;;10.92;76.20;99488.44;1087525;54;19966;-80
2022/09/17 00:37:31;;;;;;;;;;;;;;;11.02;75.77;99504.38;1087460;54;19950;-79
2022/09/17 00:38:35;;;;;;;;;;;;;;;10.92;75.88;99499.13;1087414;54;19947;-79
2022/09/17 00:39:36;;;;;;;;;;;;;;;10.79;76.41;99500.56;1087289;54;19977;-78
2022/09/17 00:40:41;;;;;;;;;;;;;;;10.81;76.07;99507.47;1087438;54;20508;-79
2022/09/17 00:41:42;;;;;;;;;;;;;;;10.74;76.39;99493.88;1086849;54;19950;-80
2022/09/17 00:42:46;;;;;;;;;;;;;;;10.81;76.11;99501.25;1087338;54;19942;-78
2022/09/17 00:43:48;;;;;;;;;;;;;;;10.75;76.38;99500.91;1086735;54;19998;-80
2022/09/17 00:44:53;;;;;;;;;;;;;;;10.75;76.81;99498.22;1087262;54;19943;-78
2022/09/17 00:45:57;;;;;;;;;;;;;;;10.70;76.64;99497.03;1087377;54;19985;-80
2022/09/17 00:47:00;;;;;;;;;;;;;;;10.75;76.41;99495.56;1087422;54;19957;-79
2022/09/17 00:48:03;;;;;;;;;;;;;;;10.86;76.23;99498.97;1087363;54;19942;-76
2022/09/17 00:49:09;;;;;;;;;;;;;;;10.83;75.86;99500.09;1087404;54;19943;-78
2022/09/17 00:50:12;;;;;;;;;;;;;;;10.92;76.15;99500.97;1087475;54;20634;-79
2022/09/17 00:51:19;;;;;;;;;;;;;;;11.00;75.56;99513.56;1087870;39;20370;-77
2022/09/17 00:52:22;;;;;;;;;;;;;;;10.91;75.58;99501.97;1087663;54;19957;-80
2022/09/17 00:53:27;;;;;;;;;;;;;;;10.93;75.87;99499.97;1087437;54;19947;-79
2022/09/17 00:54:28;;;;;;;;;;;;;;;10.96;75.58;99504.16;1088215;39;20734;-80
2022/09/17 00:55:33;;;;;;;;;;;;;;;11.02;75.28;99500.84;1087309;54;19950;-77
2022/09/17 00:56:36;;;;;;;;;;;;;;;11.00;75.21;99503.69;1087073;54;19951;-77
2022/09/17 00:57:39;;;;;;;;;;;;;;;10.80;75.83;99500.44;1087230;54;19970;-77
2022/09/17 00:58:40;;;;;;;;;;;;;;;10.73;76.50;99500.22;1087410;54;19946;-77
2022/09/17 00:59:44;;;;;;;;;;;;;;;10.72;76.24;99503.88;1087313;54;19957;-80
2022/09/17 01:00:46;;;;;;;;;;;;;;;10.79;75.96;99503.25;1087006;54;19954;-80
2022/09/17 01:01:52;;;;;;;;;;;;;;;10.68;76.15;99502.50;1087292;54;19987;-77
2022/09/17 01:02:53;;;;;;;;;;;;;;;10.66;76.53;99503.69;1087248;54;20065;-80
2022/09/17 01:03:57;;;;;;;;;;;;;;;10.70;76.34;99503.19;1087070;54;19942;-80
2022/09/17 01:04:58;;;;;;;;;;;;;;;10.63;76.53;99507.50;1087430;54;19950;-77
2022/09/17 01:06:06;;;;;;;;;;;;;;;10.59;77.00;99501.66;1087469;54;20728;-78
2022/09/17 01:07:09;;;;;;;;;;;;;;;10.55;77.01;99510.16;1087465;54;19942;-78
2022/09/17 01:08:19;;;;;;;;;;;;;;;10.52;77.21;99508.63;1088540;39;20327;-76
2022/09/17 01:09:25;;;;;;;;;;;;;;;10.56;77.08;99512.66;1087771;39;20578;-77
2022/09/17 01:10:46;;;;;;;;;;;;;;;10.71;76.65;99509.41;1087289;54;19957;-77
2022/09/17 01:11:55;;;;;;;;;;;;;;;10.81;75.88;99519.97;1087275;54;19951;-77
2022/09/17 01:13:08;;;;;;;;;;;;;;;10.81;75.41;99510.13;1087415;54;19946;-77
2022/09/17 01:14:15;;;;;;;;;;;;;;;10.79;75.89;99508.59;1086850;54;19939;-79
2022/09/17 01:15:24;;;;;;;;;;;;;;;10.79;75.53;99509.44;1087851;46;19966;-77
2022/09/17 01:16:28;;;;;;;;;;;;;;;10.84;75.72;99511.63;1087419;54;19942;-79
2022/09/17 01:17:39;;;;;;;;;;;;;;;10.81;75.64;99519.97;1087481;54;20610;-77
2022/09/17 01:18:46;;;;;;;;;;;;;;;10.86;75.56;99517.66;1087321;54;19943;-78
2022/09/17 01:20:05;;;;;;;;;;;;;;;10.93;75.22;99516.84;1087369;54;19966;-80
2022/09/17 01:21:19;;;;;;;;;;;;;;;11.00;75.23;99522.41;1087605;54;19947;-77
2022/09/17 01:22:25;;;;;;;;;;;;;;;10.93;75.06;99516.84;1087667;54;20665;-78
2022/09/17 01:23:41;;;;;;;;;;;;;;;10.87;75.18;99516.66;1087497;54;19943;-79
2022/09/17 01:24:50;;;;;;;;;;;;;;;10.80;75.33;99516.47;1087399;39;20479;-78
2022/09/17 01:25:58;;;;;;;;;;;;;;;10.77;75.61;99517.59;1086984;54;19943;-78
2022/09/17 01:27:17;;;;;;;;;;;;;;;10.70;75.83;99515.75;1086969;54;20865;-80
2022/09/17 01:28:34;;;;;;;;;;;;;;;10.54;76.65;99513.81;1086783;54;19943;-79
2022/09/17 01:29:49;;;;;;;;;;;;;;;10.43;76.71;99521.09;1086666;54;19950;-80
2022/09/17 01:31:14;;;;;;;;;;;;;;;10.45;76.81;99513.75;1087353;39;20581;-79
2022/09/17 01:32:19;;;;;;;;;;;;;;;10.40;76.76;99516.03;1086852;54;20055;-78
2022/09/17 01:33:27;;;;;;;;;;;;;;;10.49;77.03;99510.75;1086746;54;19943;-76
2022/09/17 01:34:33;;;;;;;;;;;;;;;10.49;76.42;99516.09;1086810;54;19954;-77
2022/09/17 01:35:39;;;;;;;;;;;;;;;10.54;76.73;99516.47;1086830;54;19950;-77
2022/09/17 01:36:51;;;;;;;;;;;;;;;10.54;76.50;99517.31;1086879;54;19946;-77
2022/09/17 01:38:00;;;;;;;;;;;;;;;10.67;75.96;99521.41;1086717;54;20555;-78
2022/09/17 01:39:08;;;;;;;;;;;;;;;10.63;75.93;99525.41;1086813;54;19947;-76
2022/09/17 01:40:13;;;;;;;;;;;;;;;10.58;76.13;99525.88;1086636;54;19954;-77
2022/09/17 01:41:21;;;;;;;;;;;;;;;10.67;76.01;99524.94;1086895;54;20706;-78
2022/09/17 01:42:24;;;;;;;;;;;;;;;10.74;75.40;99522.44;1086758;54;19943;-76
2022/09/17 01:43:31;;;;;;;;;;;;;;;10.77;75.26;99522.94;1086898;54;19954;-77
2022/09/17 01:44:36;;;;;;;;;;;;;;;10.87;75.29;99517.50;1086875;54;19980;-78
2022/09/17 01:45:42;;;;;;;;;;;;;;;10.80;75.04;99523.63;1086609;54;19994;-77
2022/09/17 01:46:49;;;;;;;;;;;;;;;10.75;75.31;99522.28;1086944;54;19942;-77
2022/09/17 01:47:55;;;;;;;;;;;;;;;10.72;75.31;99525.28;1087015;54;19942;-76
2022/09/17 01:48:59;;;;;;;;;;;;;;;10.80;75.17;99524.50;1088284;39;20951;-78
2022/09/17 01:50:05;;;;;;;;;;;;;;;10.72;75.32;99525.28;1086716;54;20014;-77
2022/09/17 01:51:07;;;;;;;;;;;;;;;10.76;75.19;99523.97;1086400;54;19950;-77
2022/09/17 01:52:13;;;;;;;;;;;;;;;10.80;75.08;99528.97;1086664;54;19954;-77
2022/09/17 01:53:16;;;;;;;;;;;;;;;10.79;75.02;99524.63;1086748;54;20539;-77
2022/09/17 01:54:23;;;;;;;;;;;;;;;10.75;75.13;99524.97;1086851;54;19981;-77
2022/09/17 01:55:28;;;;;;;;;;;;;;;10.74;75.42;99527.78;1086946;54;19950;-77
2022/09/17 01:56:35;;;;;;;;;;;;;;;10.61;75.60;99529.06;1086896;54;19947;-77
2022/09/17 01:57:39;;;;;;;;;;;;;;;10.53;75.89;99531.66;1086979;39;20123;-77
2022/09/17 01:58:45;;;;;;;;;;;;;;;10.53;76.32;99522.81;1086816;54;20706;-77
2022/09/17 01:59:48;;;;;;;;;;;;;;;10.45;76.36;99521.78;1086488;54;19981;-77
2022/09/17 02:00:54;;;;;;;;;;;;;;;10.52;76.26;99523.81;1086726;54;19934;-77
2022/09/17 02:02:02;;;;;;;;;;;;;;;10.55;76.13;99518.97;1087584;39;20480;-76
2022/09/17 02:03:08;;;;;;;;;;;;;;;10.57;75.95;99524.19;1087076;54;19955;-77
2022/09/17 02:04:13;;;;;;;;;;;;;;;10.52;76.00;99518.47;1087193;54;20516;-80
2022/09/17 02:05:21;;;;;;;;;;;;;;;10.48;76.18;99525.13;1087559;39;20503;-78
2022/09/17 02:06:28;;;;;;;;;;;;;;;10.50;75.90;99531.13;1087651;39;20434;-79
2022/09/17 02:07:30;;;;;;;;;;;;;;;10.52;75.97;99526.47;1087160;54;19939;-77
2022/09/17 02:08:38;;;;;;;;;;;;;;;10.60;75.74;99524.72;1087240;54;19942;-77
2022/09/17 02:09:41;;;;;;;;;;;;;;;10.71;75.55;99528.13;1087166;54;19939;-78
2022/09/17 02:10:46;;;;;;;;;;;;;;;10.62;75.32;99529.88;1087970;46;19949;-77
2022/09/17 02:11:50;;;;;;;;;;;;;;;10.67;75.21;99543.63;1088634;39;20519;-77
2022/09/17 02:12:57;;;;;;;;;;;;;;;10.73;75.00;99536.78;1087209;54;20441;-77
2022/09/17 02:14:02;;;;;;;;;;;;;;;10.74;75.03;99542.00;1088821;31;20591;-77
2022/09/17 02:15:10;;;;;;;;;;;;;;;10.73;74.69;99543.00;1086493;54;20007;-78
2022/09/17 02:16:12;;;;;;;;;;;;;;;10.83;74.81;99542.88;1087312;54;19947;-78
2022/09/17 02:17:26;;;;;;;;;;;;;;;10.86;74.63;99542.56;1087226;54;19950;-79
2022/09/17 02:18:30;;;;;;;;;;;;;;;10.85;74.56;99540.88;1088501;39;20412;-77
2022/09/17 02:19:37;;;;;;;;;;;;;;;10.84;74.06;99543.72;1086950;54;19954;-78
2022/09/17 02:20:40;;;;;;;;;;;;;;;10.86;74.40;99545.25;1087094;54;20551;-77
2022/09/17 02:21:47;;;;;;;;;;;;;;;10.92;73.97;99535.75;1087231;54;20696;-76
2022/09/17 02:22:51;;;;;;;;;;;;;;;10.88;74.32;99542.41;1087164;54;19966;-77
2022/09/17 02:23:59;;;;;;;;;;;;;;;10.90;74.30;99548.44;1087217;54;19962;-77
2022/09/17 02:25:03;;;;;;;;;;;;;;;10.92;73.82;99541.09;1087366;54;19954;-76
2022/09/17 02:26:18;;;;;;;;;;;;;;;10.95;74.00;99540.78;1087934;39;20364;-77
2022/09/17 02:27:22;;;;;;;;;;;;;;;10.99;74.15;99542.13;1087828;54;19994;-77
2022/09/17 02:28:35;;;;;;;;;;;;;;;10.86;74.03;99541.75;1089372;46;20639;-77
2022/09/17 02:29:38;;;;;;;;;;;;;;;10.74;74.06;99542.00;1087877;54;19927;-78
2022/09/17 02:30:48;;;;;;;;;;;;;;;10.70;74.52;99543.31;1088326;39;20162;-77
2022/09/17 02:31:49;;;;;;;;;;;;;;;10.80;74.44;99540.53;1088693;46;19994;-77
2022/09/17 02:33:04;;;;;;;;;;;;;;;10.69;74.54;99540.78;1087802;54;19946;-77
2022/09/17 02:34:06;;;;;;;;;;;;;;;10.75;74.32;99540.16;1087823;54;20002;-77
2022/09/17 02:35:12;;;;;;;;;;;;;;;10.74;74.23;99533.97;1087588;54;19957;-76
2022/09/17 02:36:14;;;;;;;;;;;;;;;10.64;74.77;99535.06;1087464;54;19971;-77
2022/09/17 02:37:18;;;;;;;;;;;;;;;10.63;75.04;99541.44;1087428;54;19950;-78
2022/09/17 02:38:23;;;;;;;;;;;;;;;10.59;74.85;99541.75;1087371;54;19954;-77
2022/09/17 02:39:27;;;;;;;;;;;;;;;10.58;74.95;99539.25;1087448;54;19946;-77
2022/09/17 02:40:31;;;;;;;;;;;;;;;10.68;74.86;99537.28;1087485;54;19943;-76
2022/09/17 02:41:40;;;;;;;;;;;;;;;10.60;75.17;99543.44;1087541;54;19969;-79
2022/09/17 02:42:51;;;;;;;;;;;;;;;10.70;74.96;99540.63;1089005;39;20420;-77
2022/09/17 02:44:00;;;;;;;;;;;;;;;10.54;74.84;99537.88;1087545;54;19999;-78
2022/09/17 02:45:06;;;;;;;;;;;;;;;10.53;75.11;99530.84;1087604;54;19957;-77
2022/09/17 02:46:16;;;;;;;;;;;;;;;10.46;75.20;99535.97;1087697;47;19955;-76
2022/09/17 02:47:28;;;;;;;;;;;;;;;10.42;75.81;99535.44;1087838;47;20014;-77
2022/09/17 02:48:52;;;;;;;;;;;;;;;10.49;75.47;99534.81;1087001;54;19973;-80
2022/09/17 02:50:01;;;;;;;;;;;;;;;10.44;75.55;99541.47;1087636;54;19939;-79
2022/09/17 02:51:13;;;;;;;;;;;;;;;10.37;75.78;99537.75;1087697;54;20657;-78
2022/09/17 02:52:22;;;;;;;;;;;;;;;10.35;75.89;99537.03;1087481;54;19942;-78
2022/09/17 02:53:34;;;;;;;;;;;;;;;10.36;75.98;99536.03;1087398;54;20566;-77
2022/09/17 02:54:39;;;;;;;;;;;;;;;10.38;76.04;99535.91;1087191;54;19942;-78
2022/09/17 02:55:48;;;;;;;;;;;;;;;10.42;75.60;99535.44;1087228;54;20817;-77
2022/09/17 02:56:54;;;;;;;;;;;;;;;10.37;75.59;99528.84;1089350;39;20515;-76
2022/09/17 02:58:02;;;;;;;;;;;;;;;10.33;75.86;99531.00;1087386;54;19947;-77
2022/09/17 02:59:09;;;;;;;;;;;;;;;10.29;76.16;99535.00;1087137;54;19958;-77
2022/09/17 03:00:16;;;;;;;;;;;;;;;10.31;76.35;99535.66;1086845;54;19950;-76
2022/09/17 03:01:22;;;;;;;;;;;;;;;10.31;76.17;99535.66;1094892;31;20585;-77
2022/09/17 03:02:28;;;;;;;;;;;;;;;10.26;76.35;99540.63;1087491;54;19950;-77
2022/09/17 03:03:31;;;;;;;;;;;;;;;10.24;76.18;99537.28;1086980;54;19970;-77
2022/09/17 03:04:38;;;;;;;;;;;;;;;10.24;76.62;99537.28;1087124;54;19946;-79
2022/09/17 03:05:41;;;;;;;;;;;;;;;10.20;76.77;99535.94;1087504;54;19942;-79
2022/09/17 03:06:47;;;;;;;;;;;;;;;10.17;76.82;99544.25;1087211;54;19949;-77
2022/09/17 03:07:49;;;;;;;;;;;;;;;10.18;76.97;99532.56;1087025;54;19964;-79
2022/09/17 03:08:56;;;;;;;;;;;;;;;10.15;77.06;99534.53;1090235;39;20397;-77
2022/09/17 03:09:57;;;;;;;;;;;;;;;10.17;76.79;99541.56;1087036;54;20548;-78
2022/09/17 03:11:01;;;;;;;;;;;;;;;10.21;76.93;99535.75;1087123;54;19947;-78
2022/09/17 03:12:02;;;;;;;;;;;;;;;10.22;76.85;99539.25;1087286;54;19949;-77
2022/09/17 03:13:07;;;;;;;;;;;;;;;10.17;76.72;99536.22;1087129;54;19942;-77
2022/09/17 03:14:08;;;;;;;;;;;;;;;10.13;77.06;99539.19;1087040;54;19950;-77
2022/09/17 03:15:12;;;;;;;;;;;;;;;10.17;77.18;99537.06;1087020;54;19970;-78
2022/09/17 03:16:13;;;;;;;;;;;;;;;10.19;76.97;99535.06;1087060;54;19971;-78
2022/09/17 03:17:17;;;;;;;;;;;;;;;10.15;77.17;99528.38;1087019;54;19938;-77
2022/09/17 03:18:18;;;;;;;;;;;;;;;10.17;77.20;99533.56;1087983;39;20381;-78
2022/09/17 03:19:22;;;;;;;;;;;;;;;10.21;76.87;99540.25;1088468;39;20481;-77
2022/09/17 03:20:26;;;;;;;;;;;;;;;10.20;76.88;99530.59;1086932;54;19953;-78
2022/09/17 03:21:30;;;;;;;;;;;;;;;10.14;76.98;99532.88;1087172;54;20006;-77
2022/09/17 03:22:31;;;;;;;;;;;;;;;10.18;76.93;99527.22;1087043;54;19973;-79
2022/09/17 03:23:36;;;;;;;;;;;;;;;10.19;76.83;99524.38;1087193;54;19939;-80
2022/09/17 03:24:37;;;;;;;;;;;;;;;10.12;76.79;99526.84;1087158;54;19946;-79
2022/09/17 03:25:41;;;;;;;;;;;;;;;10.06;77.10;99524.78;1087156;54;20834;-79
2022/09/17 03:26:42;;;;;;;;;;;;;;;10.02;77.35;99528.75;1087112;54;19947;-79
2022/09/17 03:27:47;;;;;;;;;;;;;;;10.03;77.17;99525.09;1087339;54;19950;-78
2022/09/17 03:28:48;;;;;;;;;;;;;;;9.98;77.18;99527.41;1087198;54;19942;-79
2022/09/17 03:29:51;;;;;;;;;;;;;;;10.01;77.28;99527.09;1087193;54;19957;-79
2022/09/17 03:30:53;;;;;;;;;;;;;;;9.98;77.41;99532.72;1087079;54;20549;-79
2022/09/17 03:31:56;;;;;;;;;;;;;;;10.05;77.32;99531.13;1087068;54;19950;-80
2022/09/17 03:32:57;;;;;;;;;;;;;;;10.06;76.81;99529.31;1090227;39;20399;-78
2022/09/17 03:34:01;;;;;;;;;;;;;;;9.98;77.40;99524.72;1090846;39;20587;-79
2022/09/17 03:35:02;;;;;;;;;;;;;;;10.06;77.42;99530.13;1087025;54;19951;-79
2022/09/17 03:36:09;;;;;;;;;;;;;;;10.12;76.76;99526.00;1087283;54;19954;-79
2022/09/17 03:37:10;;;;;;;;;;;;;;;10.04;77.01;99529.44;1088101;39;20486;-79
2022/09/17 03:38:14;;;;;;;;;;;;;;;10.00;77.37;99530.75;1087226;54;20001;-77
2022/09/17 03:39:15;;;;;;;;;;;;;;;9.99;77.46;99531.75;1087166;54;19973;-80
2022/09/17 03:40:18;;;;;;;;;;;;;;;9.96;77.65;99529.38;1087238;54;19986;-79
2022/09/17 03:41:20;;;;;;;;;;;;;;;9.93;77.64;99527.84;1087153;54;19965;-79
2022/09/17 03:42:23;;;;;;;;;;;;;;;9.90;77.83;99535.34;1086934;54;19939;-79
2022/09/17 03:43:25;;;;;;;;;;;;;;;9.87;77.72;99528.44;1087119;54;19939;-80
2022/09/17 03:44:29;;;;;;;;;;;;;;;9.86;77.99;99526.78;1086691;54;19943;-79
2022/09/17 03:45:30;;;;;;;;;;;;;;;9.94;78.04;99529.53;1088305;39;20566;-80
2022/09/17 03:46:34;;;;;;;;;;;;;;;9.91;77.54;99535.16;1087101;54;19942;-78
2022/09/17 03:47:36;;;;;;;;;;;;;;;9.86;78.21;99533.94;1087069;54;19946;-80
2022/09/17 03:48:39;;;;;;;;;;;;;;;9.86;77.86;99528.59;1087045;54;19942;-78
2022/09/17 03:49:40;;;;;;;;;;;;;;;10.01;77.65;99531.59;1088047;39;20404;-78
2022/09/17 03:50:45;;;;;;;;;;;;;;;10.07;77.57;99536.28;1087142;54;19962;-78
2022/09/17 03:51:48;;;;;;;;;;;;;;;10.09;77.33;99535.16;1087151;54;19957;-79
2022/09/17 03:52:52;;;;;;;;;;;;;;;10.10;76.75;99539.53;1087258;54;20022;-79
2022/09/17 03:53:53;;;;;;;;;;;;;;;10.01;77.57;99536.91;1088124;39;20859;-78
2022/09/17 03:54:57;;;;;;;;;;;;;;;9.90;77.54;99532.66;1089635;39;20472;-80
2022/09/17 03:55:58;;;;;;;;;;;;;;;9.94;77.61;99539.38;1087126;54;20516;-79
2022/09/17 03:57:02;;;;;;;;;;;;;;;9.91;77.95;99542.34;1087107;54;19934;-79
2022/09/17 03:58:03;;;;;;;;;;;;;;;9.86;78.04;99545.47;1087176;54;19974;-80
2022/09/17 03:59:07;;;;;;;;;;;;;;;9.85;78.03;99543.81;1089103;39;20462;-79
2022/09/17 04:00:09;;;;;;;;;;;;;;;9.80;78.41;99543.41;1087280;54;19943;-78
2022/09/17 04:01:12;;;;;;;;;;;;;;;9.87;78.29;99544.47;1087206;54;19942;-78
2022/09/17 04:02:14;;;;;;;;;;;;;;;9.94;77.74;99542.88;1087181;54;19942;-78
2022/09/17 04:03:18;;;;;;;;;;;;;;;9.88;77.89;99548.00;1087115;54;19942;-80
2022/09/17 04:04:19;;;;;;;;;;;;;;;9.84;78.67;99548.28;1088305;39;20467;-80
2022/09/17 04:05:23;;;;;;;;;;;;;;;9.97;78.13;99541.72;1086211;54;19958;-79
2022/09/17 04:06:24;;;;;;;;;;;;;;;10.05;77.40;99547.13;1086400;54;19967;-79
2022/09/17 04:07:30;;;;;;;;;;;;;;;10.02;77.47;99544.78;1086543;54;19943;-79
2022/09/17 04:08:32;;;;;;;;;;;;;;;10.05;77.27;99549.81;1086520;54;19966;-79
2022/09/17 04:09:36;;;;;;;;;;;;;;;9.92;77.38;99552.03;1088073;39;20439;-79
2022/09/17 04:10:37;;;;;;;;;;;;;;;9.89;77.80;99555.84;1086753;54;19947;-80
2022/09/17 04:11:41;;;;;;;;;;;;;;;9.91;77.93;99553.03;1086511;54;19966;-80
2022/09/17 04:12:42;;;;;;;;;;;;;;;9.97;77.56;99547.06;1086580;54;19950;-81
2022/09/17 04:13:45;;;;;;;;;;;;;;;9.89;77.58;99555.00;1086683;54;19954;-80
2022/09/17 04:14:47;;;;;;;;;;;;;;;9.82;78.51;99554.78;1086721;54;20529;-79
2022/09/17 04:15:50;;;;;;;;;;;;;;;9.86;78.49;99557.97;1085826;54;19958;-79
2022/09/17 04:16:51;;;;;;;;;;;;;;;9.84;78.17;99564.31;1086717;46;19977;-78
2022/09/17 04:17:57;;;;;;;;;;;;;;;9.92;77.61;99560.06;1086826;54;19973;-79
2022/09/17 04:18:58;;;;;;;;;;;;;;;9.92;78.24;99550.19;1087020;47;20441;-79
2022/09/17 04:20:03;;;;;;;;;;;;;;;9.89;77.57;99558.50;1086305;54;20453;-80
2022/09/17 04:21:04;;;;;;;;;;;;;;;9.81;78.34;99555.75;1086596;54;19946;-79
2022/09/17 04:22:08;;;;;;;;;;;;;;;9.80;78.24;99556.75;1087022;54;20028;-79
2022/09/17 04:23:12;;;;;;;;;;;;;;;9.82;78.27;99566.28;1088099;39;20468;-76
2022/09/17 04:24:17;;;;;;;;;;;;;;;9.73;78.13;99567.19;1086984;54;19949;-79
2022/09/17 04:25:18;;;;;;;;;;;;;;;9.71;78.50;99573.69;1087660;54;19939;-79
2022/09/17 04:26:28;;;;;;;;;;;;;;;9.67;78.87;99562.47;1087757;54;20003;-79
2022/09/17 04:27:29;;;;;;;;;;;;;;;9.77;78.40;99563.25;1087739;54;19943;-79
2022/09/17 04:28:37;;;;;;;;;;;;;;;9.88;77.95;99556.00;1087754;54;19949;-78
2022/09/17 04:29:38;;;;;;;;;;;;;;;9.94;77.74;99552.72;1087881;54;19939;-78
2022/09/17 04:30:45;;;;;;;;;;;;;;;10.00;77.38;99557.47;1087729;54;19942;-78
2022/09/17 04:31:46;;;;;;;;;;;;;;;10.03;77.33;99561.66;1087606;54;19950;-79
2022/09/17 04:32:50;;;;;;;;;;;;;;;9.88;77.38;99558.66;1087573;54;19951;-78
2022/09/17 04:33:51;;;;;;;;;;;;;;;9.84;77.44;99561.63;1087624;54;19949;-80
2022/09/17 04:34:55;;;;;;;;;;;;;;;9.84;77.81;99568.81;1088065;39;20483;-78
2022/09/17 04:35:57;;;;;;;;;;;;;;;9.83;78.01;99562.63;1088222;39;20621;-78
2022/09/17 04:37:00;;;;;;;;;;;;;;;9.75;78.10;99557.22;1087038;54;19942;-80
2022/09/17 04:38:01;;;;;;;;;;;;;;;9.76;77.92;99574.91;1087405;54;19947;-79
2022/09/17 04:39:08;;;;;;;;;;;;;;;9.67;77.87;99573.13;1086452;54;19947;-79
2022/09/17 04:40:09;;;;;;;;;;;;;;;9.70;78.09;99570.19;1087546;54;19947;-78
2022/09/17 04:41:13;;;;;;;;;;;;;;;9.63;78.18;99564.59;1087511;54;19943;-79
2022/09/17 04:42:14;;;;;;;;;;;;;;;9.74;78.21;99562.72;1087467;54;19938;-80
2022/09/17 04:43:18;;;;;;;;;;;;;;;9.60;78.06;99567.56;1087492;47;21065;-79
2022/09/17 04:44:19;;;;;;;;;;;;;;;9.68;78.28;99566.81;1087369;54;19957;-78
2022/09/17 04:45:24;;;;;;;;;;;;;;;9.56;78.53;99565.34;1087398;54;19983;-79
2022/09/17 04:46:25;;;;;;;;;;;;;;;9.55;78.37;99564.50;1087525;54;19946;-80
2022/09/17 04:47:28;;;;;;;;;;;;;;;9.51;78.91;99571.97;1087156;54;19946;-79
2022/09/17 04:48:30;;;;;;;;;;;;;;;9.55;78.77;99575.19;1086875;54;19950;-79
2022/09/17 04:49:33;;;;;;;;;;;;;;;9.53;78.64;99574.50;1086627;54;19951;-79
2022/09/17 04:50:35;;;;;;;;;;;;;;;9.64;78.60;99570.75;1087256;54;19973;-78
2022/09/17 04:51:39;;;;;;;;;;;;;;;9.69;78.11;99576.50;1087288;54;19950;-78
2022/09/17 04:52:41;;;;;;;;;;;;;;;9.78;77.74;99580.09;1087733;54;19943;-79
2022/09/17 04:53:57;;;;;;;;;;;;;;;9.67;77.73;99583.81;1087679;54;19942;-78
2022/09/17 04:55:01;;;;;;;;;;;;;;;9.66;78.07;99583.00;1087583;54;19950;-78
2022/09/17 04:56:07;;;;;;;;;;;;;;;9.64;78.02;99582.28;1087914;54;19943;-80
2022/09/17 04:57:09;;;;;;;;;;;;;;;9.65;77.85;99581.31;1087899;54;19951;-78
2022/09/17 04:58:19;;;;;;;;;;;;;;;9.72;77.59;99581.56;1090628;39;20518;-79
2022/09/17 04:59:20;;;;;;;;;;;;;;;9.83;77.20;99583.97;1087205;54;19946;-80
2022/09/17 05:00:24;;;;;;;;;;;;;;;9.86;76.72;99582.88;1086988;54;19947;-78
2022/09/17 05:01:30;;;;;;;;;;;;;;;9.74;77.12;99584.06;1087028;54;19966;-79
2022/09/17 05:02:31;;;;;;;;;;;;;;;9.82;76.95;99579.63;1086446;54;19953;-78
2022/09/17 05:03:35;;;;;;;;;;;;;;;9.87;76.88;99584.50;1088298;39;20431;-79
2022/09/17 05:04:36;;;;;;;;;;;;;;;9.87;76.60;99583.69;1087480;54;20646;-78
2022/09/17 05:05:40;;;;;;;;;;;;;;;9.88;76.66;99588.03;1087681;54;19946;-79
2022/09/17 05:06:41;;;;;;;;;;;;;;;9.72;76.91;99581.56;1087685;54;19954;-78
2022/09/17 05:07:46;;;;;;;;;;;;;;;9.71;77.12;99592.34;1087122;54;19950;-77
2022/09/17 05:08:47;;;;;;;;;;;;;;;9.75;76.99;99588.41;1087224;54;19957;-77
2022/09/17 05:09:53;;;;;;;;;;;;;;;9.86;76.97;99592.69;1086935;54;19987;-79
2022/09/17 05:10:57;;;;;;;;;;;;;;;9.93;76.33;99593.75;1086793;54;19954;-79
2022/09/17 05:12:02;;;;;;;;;;;;;;;9.93;76.36;99593.75;1087216;54;19962;-78
2022/09/17 05:13:04;;;;;;;;;;;;;;;9.89;76.20;99595.06;1087363;54;20006;-77
2022/09/17 05:14:12;;;;;;;;;;;;;;;9.92;76.37;99597.44;1087081;54;19950;-77
2022/09/17 05:15:14;;;;;;;;;;;;;;;9.99;76.19;99601.16;1087591;54;19931;-78
2022/09/17 05:16:21;;;;;;;;;;;;;;;9.88;76.24;99602.22;1087743;54;20969;-79
2022/09/17 05:17:25;;;;;;;;;;;;;;;9.83;76.50;99602.66;1087980;54;19954;-78
2022/09/17 05:18:32;;;;;;;;;;;;;;;9.75;76.63;99605.25;1087173;54;20737;-80
2022/09/17 05:19:38;;;;;;;;;;;;;;;9.69;76.59;99600.53;1088491;46;19942;-78
2022/09/17 05:20:45;;;;;;;;;;;;;;;9.74;76.78;99603.56;1086831;54;20105;-78
2022/09/17 05:21:47;;;;;;;;;;;;;;;9.70;77.06;99599.53;1087051;54;19953;-77
2022/09/17 05:22:55;;;;;;;;;;;;;;;9.77;76.58;99605.13;1087383;54;19951;-77
2022/09/17 05:23:58;;;;;;;;;;;;;;;9.84;76.38;99612.34;1087334;54;19951;-79
2022/09/17 05:25:05;;;;;;;;;;;;;;;9.94;76.01;99606.97;1087179;54;19947;-77
2022/09/17 05:26:14;;;;;;;;;;;;;;;9.90;76.24;99615.44;1087918;46;19970;-79
2022/09/17 05:27:17;;;;;;;;;;;;;;;9.86;76.36;99608.69;1086956;54;19942;-79
2022/09/17 05:28:24;;;;;;;;;;;;;;;9.98;76.16;99612.84;1087289;54;19957;-77
2022/09/17 05:29:25;;;;;;;;;;;;;;;9.88;75.88;99607.56;1087371;54;19926;-79
2022/09/17 05:30:31;;;;;;;;;;;;;;;9.86;76.10;99612.22;1087155;54;19951;-78
2022/09/17 05:31:35;;;;;;;;;;;;;;;9.83;76.05;99613.34;1087648;54;19943;-79
2022/09/17 05:32:39;;;;;;;;;;;;;;;9.94;76.10;99609.63;1087289;54;19949;-79
2022/09/17 05:33:40;;;;;;;;;;;;;;;9.93;75.74;99609.78;1087012;54;19966;-79
2022/09/17 05:34:44;;;;;;;;;;;;;;;9.87;75.48;99610.38;1086944;46;19973;-79
2022/09/17 05:35:45;;;;;;;;;;;;;;;9.81;76.01;99615.34;1086880;54;20461;-79
2022/09/17 05:36:49;;;;;;;;;;;;;;;9.87;76.16;99613.06;1086902;54;20640;-79
2022/09/17 05:37:50;;;;;;;;;;;;;;;9.83;75.88;99616.03;1087114;54;19939;-78
2022/09/17 05:38:54;;;;;;;;;;;;;;;9.99;75.86;99614.53;1087466;54;19954;-80